Toncontín International Airport
MHTG : now visible

Airfield :











YOU CAN JOIN US ON...

 
LOGIN :

Register | Disclaimer

   EN    FR    IT 

 









Legend :    VFR   Marginal VFR   IFR   Intensive IFR   Very Intensive IFR
Visi :
Ceiling :
>= 8 km
>= 3000ft
5 to 8 km
1000 to 3000 ft
1500m to 5 km
500 to 1000 ft
800 to 1500m
200 to 500 ft
< 800m
< 200 ft
Symbols :   Thunderstorms  Fog  Heavy snow  Heavy precipitations  Wind > 20 kt







- Airport Elevation : 3294 ft
- IATA code : TGU


MHTG - Toncontín International

CURRENT METAR :
  • 210010Z 18004KT 8000 TSVCSH SCT030TCU FEW032CB 25/17 Q1014 A2994 CB TS LTNG 8 KM E SE D/C UNL TCU ALL BECMG 6000 TSRA

EXPIRED METARs :
  • 210000Z 09004KT 9999 SCT028TCU FEW030CB 27/14 Q1014 A2994 NOSIG
  • 202300Z 36008KT 9999 SCT030TCU FEW032CB 29/13 Q1013 A2991 NOSIG
  • 202200Z 00000KT 9999 BKN032TCU 27/15 Q1013 A2991 NOSIG

TAF TAF MHTG
Valid from the 21 at 00:00 until the 22 at 00:00 UTC


202225Z 2100/2124 09006KT 9999 SCT030CB SCT080 TX30/2119Z TN18/2112Z
BECMG 2103/2105 6000 TSRA
BECMG 2106/2108 9999 NSW FEW010 SCT026
BECMG 2114/2116 16008KT SCT026
BECMG 2122/2124 8000 VCSH SCT026TCU SCT080
MHTG FIR / North America



MET'MAP, your aeronautical weather chart ! - Copyright ORBIFLY December 2007 - Disclaimer

ORBIFLY MET'MAP TEAM :

Programming & Development : Alexandra Zaïnal
Concept & Development : Baudouin d'Aumeries
Co-Development & Prog : Marc-Olivier Méhu
Technical & hardware support : Manuel Goepfert

Contact : metmap@orbifly.com




SOURCES & CREDITS :

   NOAA       Earth
Advisory